createdAt,value
2023-04-09T00:00:32.174Z,9.70
2023-04-09T00:03:00.111Z,9.83
2023-04-09T00:05:28.126Z,9.27
2023-04-09T00:07:56.205Z,9.20
2023-04-09T00:10:24.298Z,9.60
2023-04-09T00:12:52.160Z,11.30
2023-04-09T00:15:28.162Z,10.93
2023-04-09T00:18:00.843Z,14.53
2023-04-09T00:20:28.711Z,11.33
2023-04-09T00:22:56.611Z,10.83
2023-04-09T00:25:24.488Z,11.03
2023-04-09T00:27:52.319Z,10.40
2023-04-09T00:30:20.183Z,10.63
2023-04-09T00:32:48.129Z,10.40
2023-04-09T00:35:17.636Z,11.67
2023-04-09T00:37:45.894Z,10.90
2023-04-09T00:40:14.145Z,12.00
2023-04-09T00:42:42.130Z,9.57
2023-04-09T00:45:10.627Z,10.03
2023-04-09T00:47:38.597Z,9.13
2023-04-09T00:50:07.376Z,9.83
2023-04-09T00:52:37.116Z,9.90
2023-04-09T00:55:06.434Z,8.73
2023-04-09T00:57:34.587Z,9.70
2023-04-09T01:00:04.107Z,9.20
2023-04-09T01:02:35.008Z,9.13
2023-04-09T01:05:03.243Z,9.30
2023-04-09T01:07:48.616Z,10.83
2023-04-09T01:10:21.841Z,9.70
2023-04-09T01:13:01.681Z,11.63
2023-04-09T01:15:36.362Z,12.07
2023-04-09T01:18:08.669Z,10.90
2023-04-09T01:20:41.523Z,11.20
2023-04-09T01:23:19.751Z,11.17
2023-04-09T01:26:02.224Z,10.30
2023-04-09T01:28:34.415Z,10.93
2023-04-09T01:31:05.450Z,9.00
2023-04-09T01:33:34.274Z,9.60
2023-04-09T01:36:05.750Z,8.67
2023-04-09T01:38:36.355Z,8.97
2023-04-09T01:41:05.262Z,8.37
2023-04-09T01:43:35.622Z,8.83
2023-04-09T01:46:04.250Z,9.43
2023-04-09T01:48:33.910Z,9.03
2023-04-09T01:51:02.540Z,9.10
2023-04-09T01:53:31.195Z,8.83
2023-04-09T01:56:01.305Z,9.00
2023-04-09T01:58:29.259Z,8.70
2023-04-09T02:01:06.712Z,7.53
2023-04-09T02:03:39.203Z,8.50
2023-04-09T02:06:11.538Z,8.50
2023-04-09T02:08:39.381Z,7.97
2023-04-09T02:11:11.218Z,8.63
2023-04-09T02:13:41.553Z,8.43
2023-04-09T02:16:12.619Z,8.80
2023-04-09T02:18:40.506Z,8.47
2023-04-09T02:21:08.414Z,9.43
2023-04-09T02:23:36.249Z,9.63
2023-04-09T02:26:04.177Z,9.10
2023-04-09T02:28:32.084Z,9.87
2023-04-09T02:30:59.993Z,9.90
2023-04-09T02:33:29.221Z,9.20
2023-04-09T02:35:57.153Z,9.17
2023-04-09T02:38:25.540Z,9.13
2023-04-09T02:40:53.356Z,9.17
2023-04-09T02:43:21.238Z,9.03
2023-04-09T02:45:49.075Z,10.03
2023-04-09T02:48:16.949Z,9.20
2023-04-09T02:50:46.252Z,9.40
2023-04-09T02:53:14.086Z,9.43
2023-04-09T02:55:42.274Z,9.53
2023-04-09T02:58:10.117Z,9.37
2023-04-09T03:00:38.054Z,9.47
2023-04-09T03:03:06.422Z,8.00
2023-04-09T03:05:34.324Z,9.40
2023-04-09T03:08:03.636Z,9.70
2023-04-09T03:10:31.522Z,9.33
2023-04-09T03:12:59.551Z,8.50
2023-04-09T03:15:27.441Z,9.10
2023-04-09T03:17:55.382Z,8.53
2023-04-09T03:20:23.234Z,8.50
2023-04-09T03:22:51.050Z,8.17
2023-04-09T03:25:20.930Z,9.27
2023-04-09T03:27:48.785Z,11.07
2023-04-09T03:30:16.657Z,9.77
2023-04-09T03:32:44.543Z,9.57
2023-04-09T03:35:12.474Z,9.83
2023-04-09T03:37:40.659Z,10.77
2023-04-09T03:40:09.619Z,10.00
2023-04-09T03:42:38.914Z,9.97
2023-04-09T03:45:07.614Z,9.70
2023-04-09T03:47:35.646Z,9.10
2023-04-09T03:50:03.593Z,9.60
2023-04-09T03:52:31.450Z,10.47
2023-04-09T03:54:59.450Z,10.00
2023-04-09T03:57:27.273Z,8.50
2023-04-09T03:59:56.501Z,7.90
2023-04-09T04:02:27.001Z,8.50
2023-04-09T04:04:55.138Z,8.90
2023-04-09T04:07:22.979Z,8.33
2023-04-09T04:09:50.830Z,8.30
2023-04-09T04:12:18.765Z,10.37
2023-04-09T04:14:46.614Z,8.57
2023-04-09T04:17:15.940Z,9.17
2023-04-09T04:19:43.788Z,8.73
2023-04-09T04:22:11.689Z,9.90
2023-04-09T04:24:39.548Z,9.93
2023-04-09T04:27:07.388Z,8.60
2023-04-09T04:29:35.264Z,9.07
2023-04-09T04:32:03.160Z,9.53
2023-04-09T04:34:32.443Z,9.73
2023-04-09T04:37:02.831Z,9.43
2023-04-09T04:39:32.280Z,9.77
2023-04-09T04:42:00.110Z,10.37
2023-04-09T04:44:28.100Z,10.10
2023-04-09T04:46:55.934Z,10.77
2023-04-09T04:49:23.800Z,9.43
2023-04-09T04:51:53.017Z,9.37
2023-04-09T04:54:20.851Z,8.80
2023-04-09T04:56:48.661Z,9.43
2023-04-09T04:59:16.514Z,11.60
2023-04-09T05:01:44.356Z,12.67
2023-04-09T05:04:12.274Z,9.37
2023-04-09T05:06:40.111Z,9.53
2023-04-09T05:09:09.324Z,9.17
2023-04-09T05:11:37.181Z,9.23
2023-04-09T05:14:06.267Z,8.17
2023-04-09T05:16:34.194Z,8.47
2023-04-09T05:19:02.069Z,7.93
2023-04-09T05:21:29.923Z,8.10
2023-04-09T05:23:57.817Z,7.90
2023-04-09T05:26:27.066Z,8.10
2023-04-09T05:28:54.912Z,8.77
2023-04-09T05:31:22.781Z,11.20
2023-04-09T05:33:50.610Z,9.37
2023-04-09T05:36:20.025Z,10.07
2023-04-09T05:38:48.613Z,10.00
2023-04-09T05:41:16.600Z,9.30
2023-04-09T05:43:45.848Z,11.07
2023-04-09T05:46:13.689Z,11.97
2023-04-09T05:48:41.623Z,11.37
2023-04-09T05:51:10.003Z,10.60
2023-04-09T05:53:37.920Z,12.30
2023-04-09T05:56:14.503Z,13.20
2023-04-09T05:58:42.550Z,11.43
2023-04-09T06:01:11.808Z,11.77
2023-04-09T06:03:39.758Z,12.40
2023-04-09T06:06:07.806Z,13.90
2023-04-09T06:08:35.653Z,13.80
2023-04-09T06:11:03.614Z,12.87
2023-04-09T06:13:31.463Z,12.67
2023-04-09T06:15:59.494Z,13.77
2023-04-09T06:18:28.773Z,15.43
2023-04-09T06:21:02.974Z,14.70
2023-04-09T06:23:31.044Z,15.07
2023-04-09T06:25:58.923Z,16.40
2023-04-09T06:28:27.441Z,17.00
2023-04-09T06:30:55.755Z,16.67
2023-04-09T06:33:23.702Z,18.47
2023-04-09T06:35:52.999Z,17.33
2023-04-09T06:38:20.876Z,18.13
2023-04-09T06:40:49.960Z,19.30
2023-04-09T06:43:17.868Z,18.33
2023-04-09T06:45:45.755Z,19.47
2023-04-09T06:48:13.597Z,18.17
2023-04-09T06:50:41.471Z,20.37
2023-04-09T06:53:10.740Z,19.70
2023-04-09T06:55:38.639Z,20.60
2023-04-09T06:58:06.913Z,21.00
2023-04-09T07:00:34.812Z,19.67
2023-04-09T07:03:02.860Z,20.50
2023-04-09T07:05:31.713Z,20.73
2023-04-09T07:07:59.591Z,20.90
2023-04-09T07:10:28.850Z,20.50
2023-04-09T07:12:56.717Z,20.87
2023-04-09T07:15:24.740Z,21.67
2023-04-09T07:17:52.721Z,22.37
2023-04-09T07:20:20.723Z,22.20
2023-04-09T07:22:48.635Z,22.63
2023-04-09T07:25:16.954Z,23.13
2023-04-09T07:27:46.208Z,25.57
2023-04-09T07:30:14.329Z,24.47
2023-04-09T07:32:42.270Z,22.10
2023-04-09T07:35:11.811Z,25.47
2023-04-09T07:37:39.841Z,25.23
2023-04-09T07:40:09.034Z,25.30
2023-04-09T07:42:38.398Z,24.00
2023-04-09T07:45:08.960Z,26.73
2023-04-09T07:47:36.868Z,28.30
2023-04-09T07:50:05.069Z,27.63
2023-04-09T07:52:32.911Z,27.87
2023-04-09T07:55:00.953Z,26.43
2023-04-09T07:57:28.862Z,25.50
2023-04-09T07:59:56.812Z,24.73
2023-04-09T08:02:26.949Z,26.50
2023-04-09T08:04:55.136Z,27.17
2023-04-09T08:07:23.146Z,25.37
2023-04-09T08:09:51.022Z,26.00
2023-04-09T08:12:18.998Z,25.40
2023-04-09T08:14:46.853Z,25.50
2023-04-09T08:17:14.685Z,25.10
2023-04-09T08:19:43.898Z,25.60
2023-04-09T08:22:11.854Z,25.70
2023-04-09T08:24:40.255Z,24.93
2023-04-09T08:27:08.361Z,25.20
2023-04-09T08:29:36.229Z,23.70
2023-04-09T08:32:04.142Z,24.73
2023-04-09T08:34:32.030Z,25.70
2023-04-09T08:37:01.852Z,25.23
2023-04-09T08:39:29.745Z,24.87
2023-04-09T08:42:01.771Z,25.33
2023-04-09T08:44:30.729Z,25.80
2023-04-09T08:47:00.138Z,24.23
2023-04-09T08:49:28.138Z,23.67
2023-04-09T08:51:56.109Z,22.67
2023-04-09T08:54:26.802Z,23.97
2023-04-09T08:56:54.768Z,22.23
2023-04-09T08:59:22.596Z,21.50
2023-04-09T09:01:54.548Z,21.80
2023-04-09T09:04:22.665Z,20.67
2023-04-09T09:06:50.718Z,21.63
2023-04-09T09:09:18.946Z,21.87
2023-04-09T09:11:52.040Z,22.40
2023-04-09T09:14:20.965Z,22.07
2023-04-09T09:17:08.457Z,22.50
2023-04-09T09:19:36.646Z,21.97
2023-04-09T09:22:06.614Z,21.63
2023-04-09T09:24:35.056Z,22.30
2023-04-09T09:27:04.389Z,22.10
2023-04-09T09:29:32.317Z,22.90
2023-04-09T09:32:01.080Z,22.87
2023-04-09T09:34:29.072Z,22.00
2023-04-09T09:36:56.921Z,21.33
2023-04-09T09:39:24.768Z,25.63
2023-04-09T09:42:09.565Z,20.93
2023-04-09T09:44:37.389Z,21.67
2023-04-09T09:47:05.741Z,22.03
2023-04-09T09:49:33.669Z,22.53
2023-04-09T09:52:03.111Z,21.43
2023-04-09T09:54:41.009Z,24.27
2023-04-09T09:57:13.604Z,23.80
2023-04-09T09:59:44.738Z,22.63
2023-04-09T10:02:19.851Z,22.57
2023-04-09T10:04:50.795Z,19.80
2023-04-09T10:07:20.466Z,19.90
2023-04-09T10:09:50.917Z,17.27
2023-04-09T10:12:23.684Z,19.73
2023-04-09T10:14:52.961Z,21.30
2023-04-09T10:17:21.073Z,20.83
2023-04-09T10:19:59.012Z,17.83
2023-04-09T10:22:31.108Z,18.77
2023-04-09T10:24:59.930Z,18.43
2023-04-09T10:27:29.258Z,16.70
2023-04-09T10:29:57.078Z,16.63
2023-04-09T10:32:26.794Z,15.30
2023-04-09T10:34:59.543Z,15.40
2023-04-09T10:37:29.905Z,17.37
2023-04-09T10:39:58.691Z,16.17
2023-04-09T10:42:34.156Z,17.20
2023-04-09T10:45:09.998Z,18.05
2023-04-09T10:47:38.883Z,17.42
2023-04-09T10:50:17.014Z,17.08
2023-04-09T10:52:45.139Z,16.95
2023-04-09T10:55:38.032Z,16.67
2023-04-09T10:58:10.445Z,17.70
2023-04-09T11:00:42.137Z,15.90
2023-04-09T11:03:27.355Z,18.17
2023-04-09T11:06:01.022Z,16.40
2023-04-09T11:08:33.439Z,16.67
2023-04-09T11:11:02.296Z,19.70
2023-04-09T11:13:33.063Z,18.90
2023-04-09T11:16:01.526Z,17.40
2023-04-09T11:18:31.413Z,15.47
2023-04-09T11:21:03.196Z,14.13
2023-04-09T11:23:32.694Z,15.20
2023-04-09T11:26:01.807Z,14.70
2023-04-09T11:28:31.113Z,14.37
2023-04-09T11:30:58.981Z,14.37
2023-04-09T11:33:33.241Z,14.73
2023-04-09T11:36:01.805Z,14.90
2023-04-09T11:38:32.476Z,13.53
2023-04-09T11:41:01.322Z,13.70
2023-04-09T11:43:29.271Z,13.68
2023-04-09T11:45:58.833Z,13.55
2023-04-09T11:48:26.771Z,12.48
2023-04-09T11:50:55.020Z,12.98
2023-04-09T11:53:24.530Z,12.65
2023-04-09T11:55:53.288Z,13.15
2023-04-09T11:58:23.937Z,13.32
2023-04-09T12:00:54.299Z,13.97
2023-04-09T12:03:32.682Z,13.80
2023-04-09T12:06:02.931Z,13.23
2023-04-09T12:08:31.349Z,12.40
2023-04-09T12:11:09.686Z,14.17
2023-04-09T12:13:37.530Z,14.13
2023-04-09T12:16:06.648Z,13.70
2023-04-09T12:18:37.569Z,12.50
2023-04-09T12:21:06.157Z,12.00
2023-04-09T12:23:35.074Z,12.90
2023-04-09T12:26:02.959Z,12.30
2023-04-09T12:28:30.888Z,12.07
2023-04-09T12:31:01.748Z,13.33
2023-04-09T12:33:29.607Z,11.67
2023-04-09T12:35:58.954Z,11.83
2023-04-09T12:38:26.882Z,11.70
2023-04-09T12:40:54.862Z,11.63
2023-04-09T12:43:22.730Z,12.43
2023-04-09T12:45:50.602Z,11.63
2023-04-09T12:48:18.481Z,11.67
2023-04-09T12:50:46.335Z,12.10
2023-04-09T12:53:15.566Z,11.57
2023-04-09T12:55:43.398Z,11.80
2023-04-09T12:58:11.268Z,11.23
2023-04-09T13:00:39.252Z,12.10
2023-04-09T13:03:07.448Z,18.17
2023-04-09T13:05:36.215Z,13.73
2023-04-09T13:08:04.102Z,10.50
2023-04-09T13:10:33.377Z,11.40
2023-04-09T13:13:01.494Z,10.73
2023-04-09T13:15:29.531Z,11.13
2023-04-09T13:17:57.565Z,11.60
2023-04-09T13:20:25.508Z,11.37
2023-04-09T13:22:53.330Z,11.33
2023-04-09T13:25:21.353Z,12.07
2023-04-09T13:27:50.686Z,11.13
2023-04-09T13:30:18.716Z,10.80
2023-04-09T13:32:46.840Z,11.77
2023-04-09T13:35:14.987Z,11.87
2023-04-09T13:37:43.106Z,11.77
2023-04-09T13:40:11.521Z,12.20
2023-04-09T13:42:39.406Z,12.50
2023-04-09T13:45:09.401Z,11.70
2023-04-09T13:47:37.989Z,11.80
2023-04-09T13:50:07.455Z,12.50
2023-04-09T13:52:35.446Z,10.80
2023-04-09T13:55:04.790Z,10.30
2023-04-09T13:57:32.678Z,11.13
2023-04-09T14:00:02.197Z,10.27
2023-04-09T14:02:31.901Z,10.40
2023-04-09T14:04:59.928Z,10.13
2023-04-09T14:07:27.806Z,8.70
2023-04-09T14:09:55.918Z,8.37
2023-04-09T14:12:23.765Z,9.83
2023-04-09T14:14:51.744Z,9.50
2023-04-09T14:17:19.598Z,9.50
2023-04-09T14:19:48.802Z,9.50
2023-04-09T14:22:16.674Z,10.03
2023-04-09T14:24:44.498Z,9.13
2023-04-09T14:27:12.340Z,9.87
2023-04-09T14:29:40.174Z,10.27
2023-04-09T14:32:08.018Z,9.83
2023-04-09T14:34:35.886Z,10.57
2023-04-09T14:37:05.116Z,10.93
2023-04-09T14:39:33.048Z,10.10
2023-04-09T14:42:01.058Z,11.37
2023-04-09T14:44:29.253Z,10.63
2023-04-09T14:46:57.948Z,10.27
2023-04-09T14:49:25.977Z,11.07
2023-04-09T14:51:54.598Z,10.93
2023-04-09T14:54:23.826Z,10.40
2023-04-09T14:56:51.692Z,11.83
2023-04-09T14:59:19.589Z,13.07
2023-04-09T15:01:47.599Z,13.23
2023-04-09T15:04:15.777Z,12.67
2023-04-09T15:06:43.736Z,13.60
2023-04-09T15:09:19.993Z,12.60
2023-04-09T15:11:49.229Z,11.77
2023-04-09T15:14:17.141Z,12.07
2023-04-09T15:16:45.166Z,11.63
2023-04-09T15:19:13.063Z,13.13
2023-04-09T15:21:40.878Z,13.07
2023-04-09T15:24:08.748Z,12.77
2023-04-09T15:26:36.614Z,12.40
2023-04-09T15:29:08.763Z,11.57
2023-04-09T15:31:38.042Z,11.67
2023-04-09T15:34:07.042Z,10.93
2023-04-09T15:36:35.114Z,11.03
2023-04-09T15:39:04.729Z,10.27
2023-04-09T15:41:33.772Z,9.20
2023-04-09T15:44:01.654Z,9.33
2023-04-09T15:46:30.882Z,10.43
2023-04-09T15:48:58.738Z,9.87
2023-04-09T15:51:27.086Z,8.63
2023-04-09T15:53:54.924Z,9.50
2023-04-09T15:56:22.795Z,10.03
2023-04-09T15:58:50.802Z,8.87
2023-04-09T16:01:19.154Z,8.67
2023-04-09T16:03:52.057Z,9.23
2023-04-09T16:06:21.137Z,8.90
2023-04-09T16:08:48.991Z,8.57
2023-04-09T16:11:17.251Z,8.20
2023-04-09T16:13:45.165Z,8.40
2023-04-09T16:16:13.040Z,8.53
2023-04-09T16:18:40.949Z,7.97
2023-04-09T16:21:10.216Z,8.60
2023-04-09T16:23:38.489Z,8.40
2023-04-09T16:26:06.878Z,8.77
2023-04-09T16:28:34.751Z,8.30
2023-04-09T16:31:02.637Z,8.60
2023-04-09T16:33:34.218Z,8.57
2023-04-09T16:36:02.102Z,9.10
2023-04-09T16:38:31.406Z,9.97
2023-04-09T16:40:59.429Z,9.67
2023-04-09T16:43:27.311Z,9.70
2023-04-09T16:45:55.512Z,9.27
2023-04-09T16:48:24.010Z,9.83
2023-04-09T16:50:51.887Z,10.50
2023-04-09T16:53:19.806Z,9.70
2023-04-09T16:55:49.164Z,9.70
2023-04-09T16:58:17.074Z,9.30
2023-04-09T17:00:47.215Z,9.90
2023-04-09T17:03:16.146Z,10.00
2023-04-09T17:05:49.375Z,10.43
2023-04-09T17:08:17.524Z,10.67
2023-04-09T17:10:45.810Z,11.17
2023-04-09T17:13:15.042Z,11.97
2023-04-09T17:15:43.202Z,10.90
2023-04-09T17:18:11.031Z,11.47
2023-04-09T17:20:38.887Z,11.07
2023-04-09T17:23:06.726Z,12.27
2023-04-09T17:25:34.647Z,11.40
2023-04-09T17:28:02.707Z,11.50
2023-04-09T17:30:33.214Z,11.50
2023-04-09T17:33:01.730Z,11.53
2023-04-09T17:35:29.644Z,12.67
2023-04-09T17:37:57.547Z,11.47
2023-04-09T17:40:25.455Z,11.53
2023-04-09T17:42:53.310Z,11.53
2023-04-09T17:45:21.164Z,12.57
2023-04-09T17:47:51.211Z,12.83
2023-04-09T17:50:19.758Z,10.97
2023-04-09T17:52:47.634Z,12.17
2023-04-09T17:55:15.589Z,12.73
2023-04-09T17:57:43.520Z,12.63
2023-04-09T18:00:12.399Z,11.80
2023-04-09T18:02:40.436Z,11.83
2023-04-09T18:05:10.874Z,11.70
2023-04-09T18:07:38.844Z,12.77
2023-04-09T18:10:07.651Z,11.97
2023-04-09T18:12:35.669Z,12.10
2023-04-09T18:15:04.256Z,11.73
2023-04-09T18:17:32.419Z,11.70
2023-04-09T18:20:00.797Z,12.90
2023-04-09T18:22:30.057Z,12.23
2023-04-09T18:24:57.937Z,12.30
2023-04-09T18:27:25.863Z,12.67
2023-04-09T18:29:53.702Z,14.47
2023-04-09T18:32:21.782Z,14.97
2023-04-09T18:34:49.666Z,13.80
2023-04-09T18:37:17.793Z,13.77
2023-04-09T18:39:47.168Z,13.33
2023-04-09T18:42:15.168Z,12.77
2023-04-09T18:44:43.031Z,11.30
2023-04-09T18:47:12.046Z,10.57
2023-04-09T18:49:39.955Z,11.93
2023-04-09T18:52:09.203Z,11.37
2023-04-09T18:54:37.552Z,10.43
2023-04-09T18:57:07.072Z,10.70
2023-04-09T18:59:35.350Z,11.80
2023-04-09T19:02:04.968Z,10.57
2023-04-09T19:04:36.292Z,12.40
2023-04-09T19:07:04.511Z,12.73
2023-04-09T19:09:33.059Z,11.40
2023-04-09T19:12:01.552Z,11.10
2023-04-09T19:14:30.958Z,11.23
2023-04-09T19:16:59.659Z,11.90
2023-04-09T19:19:29.013Z,12.23
2023-04-09T19:21:56.883Z,12.53
2023-04-09T19:24:25.155Z,11.07
2023-04-09T19:26:53.578Z,12.23
2023-04-09T19:29:21.452Z,14.03
2023-04-09T19:31:50.723Z,13.83
2023-04-09T19:34:18.609Z,17.20
2023-04-09T19:36:46.630Z,11.87
2023-04-09T19:39:15.463Z,10.87
2023-04-09T19:41:43.296Z,12.30
2023-04-09T19:44:11.412Z,11.37
2023-04-09T19:46:39.338Z,12.13
2023-04-09T19:49:08.625Z,11.53
2023-04-09T19:51:36.468Z,12.60
2023-04-09T19:54:04.386Z,11.13
2023-04-09T19:56:32.968Z,13.20
2023-04-09T19:59:00.971Z,13.10
2023-04-09T20:01:29.072Z,10.90
2023-04-09T20:03:57.614Z,10.77
2023-04-09T20:06:27.156Z,11.87
2023-04-09T20:08:56.020Z,12.47
2023-04-09T20:11:23.906Z,10.63
2023-04-09T20:13:52.048Z,12.70
2023-04-09T20:16:20.136Z,11.30
2023-04-09T20:18:48.064Z,10.17
2023-04-09T20:21:15.947Z,9.33
2023-04-09T20:23:47.809Z,10.87
2023-04-09T20:26:15.652Z,11.73
2023-04-09T20:28:43.578Z,13.60
2023-04-09T20:31:11.440Z,13.00
2023-04-09T20:33:39.373Z,13.30
2023-04-09T20:36:15.134Z,13.40
2023-04-09T20:38:43.114Z,14.77
2023-04-09T20:41:12.340Z,15.27
2023-04-09T20:43:40.455Z,14.43
2023-04-09T20:46:08.584Z,14.63
2023-04-09T20:48:36.472Z,16.43
2023-04-09T20:51:09.124Z,15.53
2023-04-09T20:53:36.988Z,17.27
2023-04-09T20:56:05.994Z,18.77
2023-04-09T20:58:35.266Z,14.67
2023-04-09T21:01:06.532Z,13.27
2023-04-09T21:03:35.983Z,15.90
2023-04-09T21:06:04.311Z,12.90
2023-04-09T21:08:32.302Z,15.13
2023-04-09T21:11:02.172Z,14.53
2023-04-09T21:13:30.925Z,18.87
2023-04-09T21:16:04.087Z,17.47
2023-04-09T21:18:32.181Z,18.43
2023-04-09T21:21:02.298Z,19.83
2023-04-09T21:23:30.148Z,20.43
2023-04-09T21:25:57.970Z,19.37
2023-04-09T21:28:26.636Z,22.67
2023-04-09T21:30:54.486Z,24.37
2023-04-09T21:33:23.692Z,22.43
2023-04-09T21:35:53.464Z,19.67
2023-04-09T21:38:21.322Z,17.33
2023-04-09T21:40:49.210Z,19.13
2023-04-09T21:43:17.148Z,20.50
2023-04-09T21:45:44.975Z,20.83
2023-04-09T21:48:13.725Z,22.20
2023-04-09T21:50:42.943Z,20.10
2023-04-09T21:53:10.990Z,21.30
2023-04-09T21:55:39.053Z,17.37
2023-04-09T21:58:08.226Z,22.23
2023-04-09T22:00:36.192Z,21.47
2023-04-09T22:03:04.336Z,16.60
2023-04-09T22:05:34.976Z,15.20
2023-04-09T22:08:04.369Z,25.97
2023-04-09T22:10:32.229Z,17.43
2023-04-09T22:13:00.156Z,14.87
2023-04-09T22:15:28.044Z,15.13
2023-04-09T22:17:56.197Z,16.07
2023-04-09T22:20:24.793Z,17.53
2023-04-09T22:22:52.669Z,19.20
2023-04-09T22:25:22.236Z,16.70
2023-04-09T22:27:52.691Z,15.13
2023-04-09T22:30:23.760Z,14.70
2023-04-09T22:32:52.368Z,14.13
2023-04-09T22:35:20.625Z,15.37
2023-04-09T22:37:48.480Z,19.20
2023-04-09T22:40:16.693Z,19.87
2023-04-09T22:42:47.938Z,19.23
2023-04-09T22:45:16.103Z,19.43
2023-04-09T22:47:43.999Z,17.60
2023-04-09T22:50:13.613Z,25.03
2023-04-09T22:52:41.521Z,16.70
2023-04-09T22:55:11.052Z,16.40
2023-04-09T22:57:41.098Z,16.77
2023-04-09T23:00:12.375Z,18.50
2023-04-09T23:02:40.776Z,20.07
2023-04-09T23:05:09.821Z,21.23
2023-04-09T23:07:37.684Z,21.87
2023-04-09T23:10:06.019Z,21.90
2023-04-09T23:12:33.860Z,22.53
2023-04-09T23:15:01.934Z,22.00
2023-04-09T23:17:31.323Z,23.67
2023-04-09T23:19:59.399Z,19.33
2023-04-09T23:22:27.452Z,18.93
2023-04-09T23:24:55.285Z,19.90
2023-04-09T23:27:28.272Z,18.83
2023-04-09T23:29:56.633Z,17.13
2023-04-09T23:32:24.534Z,17.03
2023-04-09T23:34:53.772Z,17.17
2023-04-09T23:37:21.686Z,18.27
2023-04-09T23:39:49.541Z,17.30
2023-04-09T23:42:17.379Z,17.30
2023-04-09T23:44:45.404Z,16.50
2023-04-09T23:47:13.785Z,16.97
2023-04-09T23:49:43.431Z,15.97
2023-04-09T23:52:12.688Z,15.50
2023-04-09T23:54:40.521Z,18.43
2023-04-09T23:57:08.389Z,18.23
2023-04-09T23:59:36.379Z,18.73
